createdAt,value
2022-12-18T00:01:21.588Z,49.30
2022-12-18T00:03:49.067Z,50.05
2022-12-18T00:06:16.942Z,39.53
2022-12-18T00:08:45.092Z,42.63
2022-12-18T00:11:15.039Z,39.58
2022-12-18T00:13:42.704Z,38.80
2022-12-18T00:16:12.818Z,40.78
2022-12-18T00:18:40.397Z,36.40
2022-12-18T00:21:09.693Z,35.33
2022-12-18T00:23:38.444Z,32.95
2022-12-18T00:26:17.332Z,34.78
2022-12-18T00:28:45.581Z,34.55
2022-12-18T00:31:15.093Z,36.50
2022-12-18T00:33:42.407Z,31.30
2022-12-18T00:36:13.113Z,27.65
2022-12-18T00:38:40.957Z,30.80
2022-12-18T00:41:09.704Z,30.17
2022-12-18T00:43:37.996Z,31.65
2022-12-18T00:46:05.876Z,35.92
2022-12-18T00:48:33.385Z,35.45
2022-12-18T00:51:00.269Z,33.55
2022-12-18T00:53:27.201Z,32.05
2022-12-18T00:55:56.532Z,29.02
2022-12-18T00:58:23.389Z,32.17
2022-12-18T01:00:50.388Z,30.05
2022-12-18T01:03:17.344Z,30.10
2022-12-18T01:05:44.339Z,33.30
2022-12-18T01:08:11.187Z,30.48
2022-12-18T01:10:41.186Z,25.77
2022-12-18T01:13:08.051Z,30.63
2022-12-18T01:15:34.925Z,28.35
2022-12-18T01:18:01.776Z,27.75
2022-12-18T01:20:29.288Z,27.77
2022-12-18T01:22:56.141Z,23.83
2022-12-18T01:25:23.052Z,24.98
2022-12-18T01:27:49.912Z,24.13
2022-12-18T01:30:16.801Z,23.42
2022-12-18T01:32:43.641Z,24.83
2022-12-18T01:35:10.556Z,22.30
2022-12-18T01:37:37.433Z,25.13
2022-12-18T01:40:05.071Z,24.98
2022-12-18T01:42:31.946Z,28.02
2022-12-18T01:45:30.075Z,27.35
2022-12-18T01:48:04.133Z,30.45
2022-12-18T01:50:35.497Z,31.02
2022-12-18T01:53:18.816Z,29.48
2022-12-18T01:56:04.573Z,28.00
2022-12-18T01:59:04.990Z,24.58
2022-12-18T02:01:33.491Z,26.98
2022-12-18T02:04:36.297Z,26.15
2022-12-18T02:07:23.830Z,23.08
2022-12-18T02:10:00.480Z,24.05
2022-12-18T02:13:02.018Z,24.77
2022-12-18T02:15:40.255Z,24.05
2022-12-18T02:18:16.523Z,23.38
2022-12-18T02:20:57.052Z,22.20
2022-12-18T02:23:42.689Z,22.50
2022-12-18T02:26:21.483Z,21.13
2022-12-18T02:29:16.905Z,23.73
2022-12-18T02:31:50.995Z,20.55
2022-12-18T02:34:19.920Z,21.27
2022-12-18T02:36:49.209Z,22.17
2022-12-18T02:39:18.917Z,20.50
2022-12-18T02:41:46.073Z,18.15
2022-12-18T02:44:14.721Z,19.75
2022-12-18T02:46:47.510Z,20.98
2022-12-18T02:49:30.993Z,19.55
2022-12-18T02:52:21.808Z,19.23
2022-12-18T02:55:06.560Z,20.05
2022-12-18T02:57:51.164Z,16.30
2022-12-18T03:00:32.835Z,16.77
2022-12-18T03:03:20.047Z,18.15
2022-12-18T03:05:51.336Z,17.70
2022-12-18T03:08:35.144Z,18.40
2022-12-18T03:11:05.847Z,19.08
2022-12-18T03:13:48.507Z,18.80
2022-12-18T03:16:28.608Z,18.58
2022-12-18T03:19:02.726Z,15.45
2022-12-18T03:21:35.496Z,18.63
2022-12-18T03:24:06.474Z,15.95
2022-12-18T03:26:36.325Z,17.05
2022-12-18T03:29:13.749Z,16.88
2022-12-18T03:31:44.072Z,16.05
2022-12-18T03:34:17.192Z,16.10
2022-12-18T03:36:44.525Z,16.70
2022-12-18T03:39:11.385Z,14.45
2022-12-18T03:42:12.623Z,14.23
2022-12-18T03:44:51.766Z,14.52
2022-12-18T03:47:40.533Z,13.95
2022-12-18T03:50:12.763Z,13.07
2022-12-18T03:53:03.394Z,12.98
2022-12-18T03:55:34.497Z,11.82
2022-12-18T03:58:04.792Z,13.02
2022-12-18T04:00:32.951Z,13.05
2022-12-18T04:03:03.042Z,13.88
2022-12-18T04:05:30.975Z,25.70
2022-12-18T04:07:58.359Z,24.52
2022-12-18T04:10:25.264Z,17.70
2022-12-18T04:12:52.169Z,16.80
2022-12-18T04:15:19.169Z,14.27
2022-12-18T04:17:50.075Z,14.18
2022-12-18T04:20:17.881Z,12.73
2022-12-18T04:22:44.827Z,12.60
2022-12-18T04:25:12.779Z,12.32
2022-12-18T04:27:39.721Z,9.93
2022-12-18T04:30:07.356Z,12.80
2022-12-18T04:32:35.846Z,12.75
2022-12-18T04:35:05.216Z,11.82
2022-12-18T04:37:32.083Z,11.00
2022-12-18T04:39:59.047Z,11.45
2022-12-18T04:42:25.894Z,12.43
2022-12-18T04:44:52.778Z,12.13
2022-12-18T04:47:19.661Z,12.48
2022-12-18T04:49:46.492Z,11.40
2022-12-18T04:52:13.460Z,12.73
2022-12-18T04:54:40.323Z,8.10
2022-12-18T04:57:07.185Z,13.73
2022-12-18T04:59:34.024Z,10.60
2022-12-18T05:02:01.032Z,13.73
2022-12-18T05:04:28.020Z,13.90
2022-12-18T05:06:54.948Z,13.70
2022-12-18T05:09:21.905Z,13.85
2022-12-18T05:11:48.776Z,14.90
2022-12-18T05:14:15.685Z,15.65
2022-12-18T05:16:42.680Z,14.63
2022-12-18T05:19:09.771Z,15.98
2022-12-18T05:21:36.650Z,16.05
2022-12-18T05:24:03.787Z,16.50
2022-12-18T05:26:31.189Z,16.05
2022-12-18T05:28:58.097Z,15.57
2022-12-18T05:31:25.008Z,15.95
2022-12-18T05:33:51.946Z,16.10
2022-12-18T05:36:18.870Z,16.00
2022-12-18T05:38:45.769Z,10.98
2022-12-18T05:41:12.728Z,18.80
2022-12-18T05:43:42.256Z,20.35
2022-12-18T05:46:16.652Z,18.30
2022-12-18T05:48:44.544Z,17.20
2022-12-18T05:51:13.757Z,15.77
2022-12-18T05:53:40.937Z,18.83
2022-12-18T05:56:13.846Z,18.25
2022-12-18T05:58:40.904Z,17.60
2022-12-18T06:01:19.826Z,17.38
2022-12-18T06:03:47.322Z,15.35
2022-12-18T06:06:23.767Z,15.88
2022-12-18T06:08:51.605Z,15.70
2022-12-18T06:11:22.249Z,15.40
2022-12-18T06:13:57.840Z,14.40
2022-12-18T06:16:25.694Z,12.68
2022-12-18T06:18:52.638Z,14.18
2022-12-18T06:21:19.942Z,12.70
2022-12-18T06:23:46.851Z,10.90
2022-12-18T06:26:15.099Z,12.60
2022-12-18T06:28:42.672Z,11.52
2022-12-18T06:31:10.191Z,11.07
2022-12-18T06:33:38.441Z,10.02
2022-12-18T06:36:12.115Z,10.95
2022-12-18T06:38:42.159Z,10.52
2022-12-18T06:41:13.442Z,11.10
2022-12-18T06:43:40.660Z,10.35
2022-12-18T06:46:07.810Z,10.90
2022-12-18T06:48:34.831Z,10.77
2022-12-18T06:51:02.301Z,11.70
2022-12-18T06:53:29.632Z,12.05
2022-12-18T06:56:10.288Z,11.25
2022-12-18T06:58:38.547Z,10.50
2022-12-18T07:01:08.175Z,10.27
2022-12-18T07:03:35.537Z,11.80
2022-12-18T07:06:02.703Z,10.60
2022-12-18T07:08:31.186Z,11.38
2022-12-18T07:10:58.142Z,9.18
2022-12-18T07:13:25.031Z,11.63
2022-12-18T07:15:51.907Z,10.55
2022-12-18T07:18:18.772Z,10.57
2022-12-18T07:20:46.254Z,11.15
2022-12-18T07:23:14.700Z,11.02
2022-12-18T07:25:41.818Z,11.70
2022-12-18T07:28:11.669Z,11.27
2022-12-18T07:30:42.560Z,11.15
2022-12-18T07:33:09.490Z,10.88
2022-12-18T07:35:39.215Z,10.35
2022-12-18T07:38:08.197Z,11.20
2022-12-18T07:40:35.074Z,11.60
2022-12-18T07:43:04.314Z,12.90
2022-12-18T07:45:31.228Z,12.73
2022-12-18T07:47:58.094Z,12.25
2022-12-18T07:50:25.112Z,11.77
2022-12-18T07:52:51.964Z,13.55
2022-12-18T07:55:18.827Z,12.43
2022-12-18T07:57:50.919Z,12.00
2022-12-18T08:00:19.112Z,12.60
2022-12-18T08:02:46.089Z,13.77
2022-12-18T08:05:16.269Z,14.00
2022-12-18T08:07:43.137Z,15.10
2022-12-18T08:10:10.329Z,14.40
2022-12-18T08:12:37.165Z,15.13
2022-12-18T08:15:04.304Z,14.18
2022-12-18T08:17:31.815Z,15.23
2022-12-18T08:19:58.687Z,15.35
2022-12-18T08:22:25.613Z,13.40
2022-12-18T08:24:53.316Z,12.52
2022-12-18T08:27:29.237Z,12.75
2022-12-18T08:29:57.345Z,12.15
2022-12-18T08:32:25.307Z,11.07
2022-12-18T08:34:52.296Z,11.35
2022-12-18T08:37:19.440Z,11.82
2022-12-18T08:39:46.586Z,12.32
2022-12-18T08:42:48.925Z,13.07
2022-12-18T08:45:15.845Z,13.75
2022-12-18T08:47:43.312Z,15.20
2022-12-18T08:50:10.822Z,14.73
2022-12-18T08:52:37.712Z,15.57
2022-12-18T08:55:05.276Z,13.43
2022-12-18T08:57:32.170Z,14.10
2022-12-18T08:59:59.113Z,12.77
2022-12-18T09:02:26.063Z,12.93
2022-12-18T09:04:57.394Z,12.10
2022-12-18T09:07:24.708Z,12.35
2022-12-18T09:09:51.624Z,12.32
2022-12-18T09:12:18.501Z,12.02
2022-12-18T09:14:45.387Z,12.25
2022-12-18T09:17:12.328Z,11.82
2022-12-18T09:19:39.283Z,12.07
2022-12-18T09:22:06.503Z,12.23
2022-12-18T09:24:33.454Z,12.93
2022-12-18T09:27:00.356Z,9.85
2022-12-18T09:29:27.268Z,12.68
2022-12-18T09:31:54.135Z,13.50
2022-12-18T09:34:22.932Z,12.07
2022-12-18T09:36:50.258Z,11.65
2022-12-18T09:39:17.438Z,12.15
2022-12-18T09:41:54.347Z,12.85
2022-12-18T09:44:31.807Z,12.13
2022-12-18T09:47:16.149Z,13.07
2022-12-18T09:49:53.218Z,13.20
2022-12-18T09:52:31.614Z,13.00
2022-12-18T09:55:20.748Z,13.55
2022-12-18T09:57:54.081Z,13.55
2022-12-18T10:00:24.057Z,14.20
2022-12-18T10:02:59.733Z,15.10
2022-12-18T10:05:38.417Z,13.30
2022-12-18T10:08:17.505Z,12.75
2022-12-18T10:10:50.875Z,12.50
2022-12-18T10:13:37.847Z,12.18
2022-12-18T10:16:23.320Z,12.82
2022-12-18T10:19:11.211Z,13.57
2022-12-18T10:21:55.319Z,13.13
2022-12-18T10:24:48.183Z,13.15
2022-12-18T10:27:25.454Z,13.55
2022-12-18T10:29:52.481Z,13.55
2022-12-18T10:32:28.173Z,14.02
2022-12-18T10:35:00.564Z,14.02
2022-12-18T10:37:30.248Z,13.75
2022-12-18T10:40:26.388Z,13.55
2022-12-18T10:43:25.382Z,15.02
2022-12-18T10:46:10.372Z,16.00
2022-12-18T10:48:52.066Z,15.90
2022-12-18T10:51:24.518Z,13.63
2022-12-18T10:54:22.566Z,13.38
2022-12-18T10:56:49.636Z,16.02
2022-12-18T10:59:18.548Z,15.65
2022-12-18T11:01:57.781Z,19.58
2022-12-18T11:04:31.150Z,22.45
2022-12-18T11:07:05.488Z,18.58
2022-12-18T11:09:37.357Z,21.77
2022-12-18T11:12:24.609Z,19.08
2022-12-18T11:14:59.065Z,15.98
2022-12-18T11:17:36.837Z,13.95
2022-12-18T11:20:08.158Z,14.10
2022-12-18T11:22:37.490Z,14.35
2022-12-18T11:25:32.537Z,14.45
2022-12-18T11:28:03.210Z,15.80
2022-12-18T11:30:32.710Z,15.65
2022-12-18T11:33:05.465Z,16.60
2022-12-18T11:35:54.708Z,20.15
2022-12-18T11:38:27.192Z,15.30
2022-12-18T11:40:59.802Z,15.30
2022-12-18T11:43:39.319Z,14.05
2022-12-18T11:46:17.631Z,14.43
2022-12-18T11:49:11.155Z,12.73
2022-12-18T11:51:56.854Z,14.15
2022-12-18T11:54:23.850Z,13.75
2022-12-18T11:57:00.275Z,14.05
2022-12-18T11:59:27.088Z,14.70
2022-12-18T12:02:05.095Z,14.85
2022-12-18T12:04:42.042Z,14.48
2022-12-18T12:07:40.399Z,14.90
2022-12-18T12:10:27.728Z,13.98
2022-12-18T12:13:03.262Z,15.00
2022-12-18T12:16:07.407Z,14.13
2022-12-18T12:18:40.415Z,14.70
2022-12-18T12:21:18.350Z,16.20
2022-12-18T12:23:58.248Z,15.63
2022-12-18T12:26:50.334Z,16.43
2022-12-18T12:29:43.795Z,15.65
2022-12-18T12:32:13.766Z,13.57
2022-12-18T12:34:46.680Z,18.00
2022-12-18T12:37:54.484Z,17.80
2022-12-18T12:40:51.178Z,17.38
2022-12-18T12:43:22.680Z,16.35
2022-12-18T12:45:57.365Z,16.05
2022-12-18T12:48:42.674Z,16.20
2022-12-18T12:51:23.800Z,15.48
2022-12-18T12:53:51.637Z,17.10
2022-12-18T12:56:22.363Z,15.98
2022-12-18T12:59:00.908Z,17.02
2022-12-18T13:01:38.042Z,17.73
2022-12-18T13:04:28.291Z,16.75
2022-12-18T13:07:27.975Z,14.73
2022-12-18T13:10:19.282Z,14.25
2022-12-18T13:13:05.412Z,16.00
2022-12-18T13:16:09.321Z,18.05
2022-12-18T13:18:36.704Z,18.83
2022-12-18T13:21:18.668Z,18.90
2022-12-18T13:23:46.239Z,15.23
2022-12-18T13:26:28.881Z,17.42
2022-12-18T13:28:57.492Z,15.70
2022-12-18T13:31:42.633Z,12.75
2022-12-18T13:34:28.420Z,14.60
2022-12-18T13:37:00.566Z,14.90
2022-12-18T13:39:35.894Z,14.63
2022-12-18T13:42:57.555Z,15.55
2022-12-18T13:45:39.921Z,16.05
2022-12-18T13:48:20.437Z,14.25
2022-12-18T13:50:59.358Z,16.88
2022-12-18T13:53:31.040Z,15.75
2022-12-18T13:55:58.451Z,17.08
2022-12-18T13:58:25.367Z,17.17
2022-12-18T14:00:52.444Z,17.50
2022-12-18T14:03:22.232Z,16.05
2022-12-18T14:06:10.031Z,15.93
2022-12-18T14:08:44.695Z,17.73
2022-12-18T14:11:23.347Z,18.73
2022-12-18T14:13:51.391Z,18.17
2022-12-18T14:16:18.765Z,18.00
2022-12-18T14:19:04.081Z,18.27
2022-12-18T14:21:40.517Z,18.23
2022-12-18T14:24:10.214Z,18.40
2022-12-18T14:26:37.103Z,19.42
2022-12-18T14:29:36.474Z,18.65
2022-12-18T14:32:20.370Z,18.40
2022-12-18T14:34:52.283Z,15.38
2022-12-18T14:37:23.743Z,19.50
2022-12-18T14:40:08.700Z,17.90
2022-12-18T14:42:38.272Z,15.05
2022-12-18T14:45:41.020Z,15.30
2022-12-18T14:48:22.838Z,14.32
2022-12-18T14:53:35.063Z,15.25
2022-12-18T14:56:03.383Z,13.30
2022-12-18T14:58:30.620Z,14.05
2022-12-18T15:01:00.227Z,14.43
2022-12-18T15:03:27.253Z,14.75
2022-12-18T15:05:54.163Z,15.30
2022-12-18T15:08:36.811Z,15.82
2022-12-18T15:11:08.956Z,14.55
2022-12-18T15:13:39.020Z,16.88
2022-12-18T15:16:13.847Z,17.42
2022-12-18T15:18:44.246Z,16.58
2022-12-18T15:21:17.443Z,17.17
2022-12-18T15:23:54.030Z,15.73
2022-12-18T15:26:23.027Z,16.45
2022-12-18T15:28:56.992Z,16.08
2022-12-18T15:31:27.416Z,17.80
2022-12-18T15:33:54.263Z,16.00
2022-12-18T15:36:26.301Z,15.18
2022-12-18T15:38:59.645Z,12.10
2022-12-18T15:41:39.320Z,15.65
2022-12-18T15:44:27.348Z,15.95
2022-12-18T15:46:56.840Z,13.73
2022-12-18T15:49:23.920Z,14.23
2022-12-18T15:51:54.728Z,15.75
2022-12-18T15:57:25.346Z,15.15
2022-12-18T15:59:58.958Z,15.55
2022-12-18T16:02:26.895Z,15.27
2022-12-18T16:04:55.095Z,18.15
2022-12-18T16:07:24.624Z,14.80
2022-12-18T16:09:53.362Z,15.20
2022-12-18T16:12:25.232Z,15.02
2022-12-18T16:14:52.185Z,15.73
2022-12-18T16:17:19.316Z,15.40
2022-12-18T16:19:46.716Z,15.43
2022-12-18T16:22:23.092Z,14.82
2022-12-18T16:24:51.418Z,13.68
2022-12-18T16:27:18.653Z,14.90
2022-12-18T16:29:45.979Z,12.85
2022-12-18T16:32:15.749Z,14.25
2022-12-18T16:34:44.645Z,13.52
2022-12-18T16:37:14.066Z,14.70
2022-12-18T16:39:41.721Z,14.73
2022-12-18T16:42:19.828Z,15.35
2022-12-18T16:44:48.253Z,14.27
2022-12-18T16:47:15.586Z,13.65
2022-12-18T16:49:43.517Z,12.93
2022-12-18T16:52:10.472Z,13.85
2022-12-18T16:54:37.418Z,13.98
2022-12-18T16:57:07.705Z,13.23
2022-12-18T16:59:38.867Z,14.13
2022-12-18T17:02:06.074Z,13.70
2022-12-18T17:04:33.835Z,12.70
2022-12-18T17:07:00.754Z,12.95
2022-12-18T17:09:27.720Z,12.27
2022-12-18T17:11:55.199Z,11.40
2022-12-18T17:14:23.903Z,13.32
2022-12-18T17:17:19.230Z,14.23
2022-12-18T17:19:38.805Z,12.68
2022-12-18T17:22:05.752Z,13.35
2022-12-18T17:24:35.088Z,11.43
2022-12-18T17:27:03.140Z,10.07
2022-12-18T17:29:30.402Z,9.48
2022-12-18T17:31:57.346Z,9.93
2022-12-18T17:34:26.564Z,11.35
2022-12-18T17:36:53.410Z,10.20
2022-12-18T17:39:21.505Z,10.18
2022-12-18T17:41:49.596Z,9.50
2022-12-18T17:44:17.278Z,9.70
2022-12-18T17:46:46.117Z,10.20
2022-12-18T17:49:14.261Z,9.65
2022-12-18T17:51:43.205Z,10.07
2022-12-18T17:54:10.929Z,11.20
2022-12-18T17:56:38.821Z,10.02
2022-12-18T17:59:07.120Z,8.52
2022-12-18T18:01:37.384Z,8.57
2022-12-18T18:04:08.110Z,8.93
2022-12-18T18:06:35.143Z,9.88
2022-12-18T18:09:06.133Z,9.48
2022-12-18T18:11:55.509Z,8.57
2022-12-18T18:14:23.206Z,8.80
2022-12-18T18:16:52.556Z,9.60
2022-12-18T18:19:22.056Z,9.02
2022-12-18T18:21:52.141Z,9.60
2022-12-18T18:24:23.674Z,8.13
2022-12-18T18:26:50.931Z,8.88
2022-12-18T18:29:23.623Z,7.63
2022-12-18T18:31:53.026Z,8.07
2022-12-18T18:34:24.815Z,8.50
2022-12-18T18:36:51.987Z,9.18
2022-12-18T18:39:19.628Z,7.40
2022-12-18T18:41:47.813Z,7.32
2022-12-18T18:44:15.860Z,8.93
2022-12-18T18:46:42.863Z,7.50
2022-12-18T18:49:10.229Z,8.10
2022-12-18T18:51:37.129Z,8.13
2022-12-18T18:54:04.179Z,8.27
2022-12-18T18:59:18.620Z,7.47
2022-12-18T19:01:45.685Z,6.53
2022-12-18T19:04:13.059Z,7.28
2022-12-18T19:06:40.276Z,7.38
2022-12-18T19:09:07.665Z,6.88
2022-12-18T19:11:53.374Z,6.13
2022-12-18T19:14:23.223Z,6.25
2022-12-18T19:16:50.313Z,6.35
2022-12-18T19:19:21.147Z,7.63
2022-12-18T19:24:15.297Z,6.70
2022-12-18T19:26:43.739Z,6.57
2022-12-18T19:29:12.731Z,7.00
2022-12-18T19:31:39.624Z,6.15
2022-12-18T19:34:07.471Z,5.82
2022-12-18T19:36:36.267Z,6.47
2022-12-18T19:39:12.516Z,7.07
2022-12-18T19:41:40.034Z,6.30
2022-12-18T19:44:08.487Z,5.72
2022-12-18T19:46:36.154Z,6.97
2022-12-18T19:49:07.512Z,7.65
2022-12-18T19:51:34.547Z,6.45
2022-12-18T19:54:02.051Z,6.20
2022-12-18T19:56:31.885Z,7.70
2022-12-18T19:58:59.034Z,5.75
2022-12-18T20:01:27.419Z,6.63
2022-12-18T20:03:55.725Z,6.35
2022-12-18T20:06:31.651Z,6.18
2022-12-18T20:09:01.577Z,5.75
2022-12-18T20:11:32.956Z,5.28
2022-12-18T20:14:03.518Z,5.65
2022-12-18T20:16:30.881Z,5.55
2022-12-18T20:18:58.808Z,4.60
2022-12-18T20:21:26.069Z,5.97
2022-12-18T20:23:55.723Z,6.35
2022-12-18T20:26:25.181Z,6.35
2022-12-18T20:28:52.676Z,5.70
2022-12-18T20:31:19.680Z,6.03
2022-12-18T20:33:48.752Z,5.38
2022-12-18T20:36:25.812Z,5.47
2022-12-18T20:38:57.099Z,5.97
2022-12-18T20:41:26.352Z,6.30
2022-12-18T20:43:58.590Z,6.05
2022-12-18T20:46:25.514Z,5.63
2022-12-18T20:48:52.505Z,6.05
2022-12-18T20:51:20.880Z,5.97
2022-12-18T20:53:48.463Z,5.70
2022-12-18T20:56:21.196Z,6.85
2022-12-18T20:58:54.836Z,6.65
2022-12-18T21:01:23.466Z,6.68
2022-12-18T21:03:50.725Z,4.70
2022-12-18T21:06:19.691Z,5.65
2022-12-18T21:08:47.254Z,5.82
2022-12-18T21:11:38.739Z,5.40
2022-12-18T21:14:23.185Z,5.53
2022-12-18T21:16:54.208Z,5.47
2022-12-18T21:19:24.607Z,5.50
2022-12-18T21:21:53.670Z,4.90
2022-12-18T21:24:21.257Z,5.65
2022-12-18T21:26:49.374Z,5.35
2022-12-18T21:29:23.333Z,5.93
2022-12-18T21:31:51.071Z,5.57
2022-12-18T21:34:23.725Z,6.13
2022-12-18T21:36:50.600Z,5.97
2022-12-18T21:39:18.230Z,5.68
2022-12-18T21:42:05.242Z,6.05
2022-12-18T21:44:35.741Z,5.10
2022-12-18T21:47:21.638Z,4.80
2022-12-18T21:49:51.260Z,4.70
2022-12-18T21:52:18.277Z,4.55
2022-12-18T21:54:45.123Z,5.75
2022-12-18T21:57:14.333Z,4.82
2022-12-18T21:59:43.431Z,4.85
2022-12-18T22:02:18.991Z,5.40
2022-12-18T22:04:47.002Z,4.90
2022-12-18T22:07:15.829Z,4.82
2022-12-18T22:09:43.050Z,3.72
2022-12-18T22:12:12.579Z,4.43
2022-12-18T22:14:39.435Z,5.10
2022-12-18T22:17:06.311Z,4.45
2022-12-18T22:19:38.143Z,4.97
2022-12-18T22:22:09.660Z,4.65
2022-12-18T22:24:36.588Z,4.20
2022-12-18T22:27:03.496Z,5.10
2022-12-18T22:29:49.650Z,4.40
2022-12-18T22:32:20.392Z,5.05
2022-12-18T22:35:03.102Z,5.07
2022-12-18T22:37:32.978Z,3.67
2022-12-18T22:39:59.805Z,4.90
2022-12-18T22:42:31.354Z,5.28
2022-12-18T22:44:58.318Z,4.63
2022-12-18T22:47:29.424Z,5.05
2022-12-18T22:49:57.136Z,5.22
2022-12-18T22:52:25.056Z,5.65
2022-12-18T22:54:54.710Z,4.63
2022-12-18T22:57:22.968Z,4.85
2022-12-18T22:59:52.563Z,5.20
2022-12-18T23:02:20.027Z,5.80
2022-12-18T23:04:47.827Z,5.38
2022-12-18T23:07:15.501Z,5.47
2022-12-18T23:09:42.538Z,5.57
2022-12-18T23:12:14.468Z,6.22
2022-12-18T23:14:41.446Z,6.18
2022-12-18T23:17:08.302Z,6.30
2022-12-18T23:19:44.059Z,5.72
2022-12-18T23:22:14.105Z,6.07
2022-12-18T23:24:41.002Z,6.75
2022-12-18T23:27:11.433Z,6.57
2022-12-18T23:29:39.452Z,6.13
2022-12-18T23:32:07.009Z,6.35
2022-12-18T23:34:33.896Z,6.30
2022-12-18T23:37:01.252Z,7.03
2022-12-18T23:39:29.980Z,7.28
2022-12-18T23:42:00.691Z,6.80
2022-12-18T23:44:27.958Z,6.18
2022-12-18T23:46:55.210Z,7.18
2022-12-18T23:49:22.592Z,6.95
2022-12-18T23:51:49.672Z,6.40
2022-12-18T23:54:16.574Z,7.10
2022-12-18T23:56:43.487Z,7.00
2022-12-18T23:59:10.593Z,6.53
